sensor_id;sensor_type;location;lat;lon;timestamp;pressure;altitude;pressure_sealevel;temperature;humidity
64025;BME280;50266;57.446;26.936;2023-12-20T00:00:56;97018.34;;;1.7;100.0
64025;BME280;50266;57.446;26.936;2023-12-20T00:01:56;97017.55;;;1.68;100.0
64025;BME280;50266;57.446;26.936;2023-12-20T00:02:56;97015.89;;;1.65;100.0
64025;BME280;50266;57.446;26.936;2023-12-20T00:03:56;97020.05;;;1.6;100.0
64025;BME280;50266;57.446;26.936;2023-12-20T00:04:57;97018.5;;;1.58;100.0
64025;BME280;50266;57.446;26.936;2023-12-20T00:05:56;97019.5;;;1.61;100.0
64025;BME280;50266;57.446;26.936;2023-12-20T00:06:57;97013.52;;;1.61;100.0
64025;BME280;50266;57.446;26.936;2023-12-20T00:07:57;97025.78;;;1.65;100.0
64025;BME280;50266;57.446;26.936;2023-12-20T00:08:57;97015.7;;;1.6;100.0
64025;BME280;50266;57.446;26.936;2023-12-20T00:09:57;97013.19;;;1.58;100.0
64025;BME280;50266;57.446;26.936;2023-12-20T00:10:57;97017.19;;;1.56;100.0
64025;BME280;50266;57.446;26.936;2023-12-20T00:11:57;97026.91;;;1.62;100.0
64025;BME280;50266;57.446;26.936;2023-12-20T00:12:57;97024.26;;;1.65;100.0
64025;BME280;50266;57.446;26.936;2023-12-20T00:13:57;97020.17;;;1.66;100.0
64025;BME280;50266;57.446;26.936;2023-12-20T00:14:57;97016.0;;;1.66;100.0
64025;BME280;50266;57.446;26.936;2023-12-20T00:15:57;97012.63;;;1.68;100.0
64025;BME280;50266;57.446;26.936;2023-12-20T00:16:57;97021.59;;;1.66;100.0
64025;BME280;50266;57.446;26.936;2023-12-20T00:17:57;97015.78;;;1.62;100.0
64025;BME280;50266;57.446;26.936;2023-12-20T00:18:57;97020.3;;;1.6;100.0
64025;BME280;50266;57.446;26.936;2023-12-20T00:19:57;97029.56;;;1.65;100.0
64025;BME280;50266;57.446;26.936;2023-12-20T00:20:57;97011.24;;;1.65;100.0
64025;BME280;50266;57.446;26.936;2023-12-20T00:21:57;97016.98;;;1.66;100.0
64025;BME280;50266;57.446;26.936;2023-12-20T00:22:57;97013.77;;;1.65;100.0
64025;BME280;50266;57.446;26.936;2023-12-20T00:23:57;97022.89;;;1.69;100.0
64025;BME280;50266;57.446;26.936;2023-12-20T00:24:57;97012.05;;;1.68;100.0
64025;BME280;50266;57.446;26.936;2023-12-20T00:25:57;97021.44;;;1.64;100.0
64025;BME280;50266;57.446;26.936;2023-12-20T00:26:57;97022.8;;;1.73;100.0
64025;BME280;50266;57.446;26.936;2023-12-20T00:27:57;97019.79;;;1.73;100.0
64025;BME280;50266;57.446;26.936;2023-12-20T00:28:57;97021.83;;;1.76;100.0
64025;BME280;50266;57.446;26.936;2023-12-20T00:29:57;97003.28;;;1.74;100.0
64025;BME280;50266;57.446;26.936;2023-12-20T00:30:57;97012.62;;;1.7;100.0
64025;BME280;50266;57.446;26.936;2023-12-20T00:31:57;97007.33;;;1.73;100.0
64025;BME280;50266;57.446;26.936;2023-12-20T00:32:57;97000.04;;;1.65;100.0
64025;BME280;50266;57.446;26.936;2023-12-20T00:33:57;97008.98;;;1.69;100.0
64025;BME280;50266;57.446;26.936;2023-12-20T00:34:57;96995.52;;;1.68;100.0
64025;BME280;50266;57.446;26.936;2023-12-20T00:35:57;96995.93;;;1.63;100.0
64025;BME280;50266;57.446;26.936;2023-12-20T00:36:57;96984.55;;;1.6;100.0
64025;BME280;50266;57.446;26.936;2023-12-20T00:37:58;96991.94;;;1.57;100.0
64025;BME280;50266;57.446;26.936;2023-12-20T00:38:57;96985.7;;;1.61;100.0
64025;BME280;50266;57.446;26.936;2023-12-20T00:39:57;96985.78;;;1.6;100.0
64025;BME280;50266;57.446;26.936;2023-12-20T00:40:57;96981.18;;;1.6;100.0
64025;BME280;50266;57.446;26.936;2023-12-20T00:41:57;96982.33;;;1.6;100.0
64025;BME280;50266;57.446;26.936;2023-12-20T00:42:57;96984.42;;;1.61;100.0
64025;BME280;50266;57.446;26.936;2023-12-20T00:43:57;96982.5;;;1.64;100.0
64025;BME280;50266;57.446;26.936;2023-12-20T00:44:58;96983.05;;;1.62;100.0
64025;BME280;50266;57.446;26.936;2023-12-20T00:45:57;96984.24;;;1.65;100.0
64025;BME280;50266;57.446;26.936;2023-12-20T00:46:57;96977.93;;;1.65;100.0
64025;BME280;50266;57.446;26.936;2023-12-20T00:47:57;96975.66;;;1.63;100.0
64025;BME280;50266;57.446;26.936;2023-12-20T00:48:57;96980.48;;;1.57;100.0
64025;BME280;50266;57.446;26.936;2023-12-20T00:49:57;96979.42;;;1.54;100.0
64025;BME280;50266;57.446;26.936;2023-12-20T00:50:57;96975.54;;;1.49;100.0
64025;BME280;50266;57.446;26.936;2023-12-20T00:51:57;96971.23;;;1.54;100.0
64025;BME280;50266;57.446;26.936;2023-12-20T00:52:57;96976.48;;;1.5;100.0
64025;BME280;50266;57.446;26.936;2023-12-20T00:53:57;96972.56;;;1.48;100.0
64025;BME280;50266;57.446;26.936;2023-12-20T00:54:57;96973.98;;;1.51;100.0
64025;BME280;50266;57.446;26.936;2023-12-20T00:55:57;96979.92;;;1.48;100.0
64025;BME280;50266;57.446;26.936;2023-12-20T00:56:57;96968.96;;;1.48;100.0
64025;BME280;50266;57.446;26.936;2023-12-20T00:57:57;96981.13;;;1.46;100.0
64025;BME280;50266;57.446;26.936;2023-12-20T00:58:57;96978.67;;;1.5;100.0
64025;BME280;50266;57.446;26.936;2023-12-20T00:59:57;96975.82;;;1.52;100.0
64025;BME280;50266;57.446;26.936;2023-12-20T01:00:57;96980.03;;;1.49;100.0
64025;BME280;50266;57.446;26.936;2023-12-20T01:01:57;96979.89;;;1.44;100.0
64025;BME280;50266;57.446;26.936;2023-12-20T01:02:57;96977.75;;;1.47;100.0
64025;BME280;50266;57.446;26.936;2023-12-20T01:03:57;96977.84;;;1.51;100.0
64025;BME280;50266;57.446;26.936;2023-12-20T01:04:57;96979.09;;;1.5;100.0
64025;BME280;50266;57.446;26.936;2023-12-20T01:05:57;96974.84;;;1.46;100.0
64025;BME280;50266;57.446;26.936;2023-12-20T01:06:57;96970.82;;;1.45;100.0
64025;BME280;50266;57.446;26.936;2023-12-20T01:07:58;96975.66;;;1.45;100.0
64025;BME280;50266;57.446;26.936;2023-12-20T01:08:58;96975.0;;;1.43;100.0
64025;BME280;50266;57.446;26.936;2023-12-20T01:09:58;96968.86;;;1.45;100.0
64025;BME280;50266;57.446;26.936;2023-12-20T01:10:58;96968.53;;;1.45;100.0
64025;BME280;50266;57.446;26.936;2023-12-20T01:11:58;96973.21;;;1.46;100.0
64025;BME280;50266;57.446;26.936;2023-12-20T01:12:58;96968.95;;;1.46;100.0
64025;BME280;50266;57.446;26.936;2023-12-20T01:13:58;96975.03;;;1.44;100.0
64025;BME280;50266;57.446;26.936;2023-12-20T01:14:58;96973.98;;;1.42;100.0
64025;BME280;50266;57.446;26.936;2023-12-20T01:15:58;96985.52;;;1.49;100.0
64025;BME280;50266;57.446;26.936;2023-12-20T01:16:59;96981.27;;;1.47;100.0
64025;BME280;50266;57.446;26.936;2023-12-20T01:17:58;96979.78;;;1.49;100.0
64025;BME280;50266;57.446;26.936;2023-12-20T01:18:58;96978.25;;;1.47;100.0
64025;BME280;50266;57.446;26.936;2023-12-20T01:19:58;96975.06;;;1.47;100.0
64025;BME280;50266;57.446;26.936;2023-12-20T01:21:01;96972.11;;;1.49;100.0
64025;BME280;50266;57.446;26.936;2023-12-20T01:21:58;96968.87;;;1.48;100.0
64025;BME280;50266;57.446;26.936;2023-12-20T01:22:58;96961.61;;;1.46;100.0
64025;BME280;50266;57.446;26.936;2023-12-20T01:23:58;96973.28;;;1.46;100.0
64025;BME280;50266;57.446;26.936;2023-12-20T01:24:58;96965.5;;;1.4;100.0
64025;BME280;50266;57.446;26.936;2023-12-20T01:25:58;96967.0;;;1.48;100.0
64025;BME280;50266;57.446;26.936;2023-12-20T01:26:58;96959.98;;;1.44;100.0
64025;BME280;50266;57.446;26.936;2023-12-20T01:27:58;96958.8;;;1.43;100.0
64025;BME280;50266;57.446;26.936;2023-12-20T01:28:58;96951.02;;;1.42;100.0
64025;BME280;50266;57.446;26.936;2023-12-20T01:29:58;96939.47;;;1.42;100.0
64025;BME280;50266;57.446;26.936;2023-12-20T01:30:58;96947.02;;;1.4;100.0
64025;BME280;50266;57.446;26.936;2023-12-20T01:31:58;96940.37;;;1.4;100.0
64025;BME280;50266;57.446;26.936;2023-12-20T01:32:59;96936.48;;;1.38;100.0
64025;BME280;50266;57.446;26.936;2023-12-20T01:33:58;96933.19;;;1.38;100.0
64025;BME280;50266;57.446;26.936;2023-12-20T01:34:58;96932.47;;;1.4;100.0
64025;BME280;50266;57.446;26.936;2023-12-20T01:35:58;96938.94;;;1.4;100.0
64025;BME280;50266;57.446;26.936;2023-12-20T01:36:58;96917.06;;;1.35;100.0
64025;BME280;50266;57.446;26.936;2023-12-20T01:37:59;96934.88;;;1.39;100.0
64025;BME280;50266;57.446;26.936;2023-12-20T01:38:58;96938.23;;;1.37;100.0
64025;BME280;50266;57.446;26.936;2023-12-20T01:39:58;96927.7;;;1.35;100.0
64025;BME280;50266;57.446;26.936;2023-12-20T01:40:59;96931.86;;;1.35;100.0
64025;BME280;50266;57.446;26.936;2023-12-20T01:41:59;96939.48;;;1.33;100.0
64025;BME280;50266;57.446;26.936;2023-12-20T01:42:59;96933.34;;;1.31;100.0
64025;BME280;50266;57.446;26.936;2023-12-20T01:43:59;96919.03;;;1.29;100.0
64025;BME280;50266;57.446;26.936;2023-12-20T01:44:59;96934.88;;;1.28;100.0
64025;BME280;50266;57.446;26.936;2023-12-20T01:45:59;96936.61;;;1.33;100.0
64025;BME280;50266;57.446;26.936;2023-12-20T01:46:59;96931.38;;;1.33;100.0
64025;BME280;50266;57.446;26.936;2023-12-20T01:47:59;96931.42;;;1.28;100.0
64025;BME280;50266;57.446;26.936;2023-12-20T01:48:59;96931.87;;;1.31;100.0
64025;BME280;50266;57.446;26.936;2023-12-20T01:49:59;96932.56;;;1.41;100.0
64025;BME280;50266;57.446;26.936;2023-12-20T01:50:59;96930.27;;;1.41;100.0
64025;BME280;50266;57.446;26.936;2023-12-20T01:51:59;96921.34;;;1.48;100.0
64025;BME280;50266;57.446;26.936;2023-12-20T01:52:59;96916.27;;;1.5;100.0
64025;BME280;50266;57.446;26.936;2023-12-20T01:53:59;96914.25;;;1.46;100.0
64025;BME280;50266;57.446;26.936;2023-12-20T01:54:59;96906.64;;;1.48;100.0
64025;BME280;50266;57.446;26.936;2023-12-20T01:55:59;96893.09;;;1.44;100.0
64025;BME280;50266;57.446;26.936;2023-12-20T01:56:59;96910.52;;;1.44;100.0
64025;BME280;50266;57.446;26.936;2023-12-20T01:57:59;96896.48;;;1.48;100.0
64025;BME280;50266;57.446;26.936;2023-12-20T01:58:59;96881.69;;;1.48;100.0
64025;BME280;50266;57.446;26.936;2023-12-20T01:59:59;96891.25;;;1.43;100.0
64025;BME280;50266;57.446;26.936;2023-12-20T02:00:59;96884.38;;;1.4;100.0
64025;BME280;50266;57.446;26.936;2023-12-20T02:01:59;96877.52;;;1.43;100.0
64025;BME280;50266;57.446;26.936;2023-12-20T02:03:00;96874.26;;;1.41;100.0
64025;BME280;50266;57.446;26.936;2023-12-20T02:03:59;96868.09;;;1.4;100.0
64025;BME280;50266;57.446;26.936;2023-12-20T02:04:59;96883.83;;;1.36;100.0
64025;BME280;50266;57.446;26.936;2023-12-20T02:05:59;96876.48;;;1.35;100.0
64025;BME280;50266;57.446;26.936;2023-12-20T02:06:59;96877.14;;;1.35;100.0
64025;BME280;50266;57.446;26.936;2023-12-20T02:07:59;96872.25;;;1.35;100.0
64025;BME280;50266;57.446;26.936;2023-12-20T02:08:59;96869.84;;;1.36;100.0
64025;BME280;50266;57.446;26.936;2023-12-20T02:09:59;96872.2;;;1.41;100.0
64025;BME280;50266;57.446;26.936;2023-12-20T02:10:59;96876.62;;;1.43;100.0
64025;BME280;50266;57.446;26.936;2023-12-20T02:11:59;96872.45;;;1.43;100.0
64025;BME280;50266;57.446;26.936;2023-12-20T02:12:59;96871.48;;;1.45;100.0
64025;BME280;50266;57.446;26.936;2023-12-20T02:13:59;96866.24;;;1.38;100.0
64025;BME280;50266;57.446;26.936;2023-12-20T02:14:59;96861.36;;;1.39;100.0
64025;BME280;50266;57.446;26.936;2023-12-20T02:15:59;96860.62;;;1.42;100.0
64025;BME280;50266;57.446;26.936;2023-12-20T02:16:59;96868.06;;;1.37;100.0
64025;BME280;50266;57.446;26.936;2023-12-20T02:17:59;96862.38;;;1.31;100.0
64025;BME280;50266;57.446;26.936;2023-12-20T02:18:59;96869.64;;;1.35;100.0
64025;BME280;50266;57.446;26.936;2023-12-20T02:19:59;96862.05;;;1.4;100.0
64025;BME280;50266;57.446;26.936;2023-12-20T02:20:59;96869.33;;;1.36;100.0
64025;BME280;50266;57.446;26.936;2023-12-20T02:22:06;96855.97;;;1.35;100.0
64025;BME280;50266;57.446;26.936;2023-12-20T02:23:03;96871.67;;;1.35;100.0
64025;BME280;50266;57.446;26.936;2023-12-20T02:24:03;96864.12;;;1.38;100.0
64025;BME280;50266;57.446;26.936;2023-12-20T02:25:03;96864.35;;;1.36;100.0
64025;BME280;50266;57.446;26.936;2023-12-20T02:26:03;96862.09;;;1.35;100.0
64025;BME280;50266;57.446;26.936;2023-12-20T02:27:03;96861.79;;;1.37;100.0
64025;BME280;50266;57.446;26.936;2023-12-20T02:28:03;96853.99;;;1.34;100.0
64025;BME280;50266;57.446;26.936;2023-12-20T02:29:03;96861.75;;;1.34;100.0
64025;BME280;50266;57.446;26.936;2023-12-20T02:30:03;96850.92;;;1.38;100.0
64025;BME280;50266;57.446;26.936;2023-12-20T02:31:03;96848.38;;;1.35;100.0
64025;BME280;50266;57.446;26.936;2023-12-20T02:32:03;96851.51;;;1.43;100.0
64025;BME280;50266;57.446;26.936;2023-12-20T02:33:03;96847.45;;;1.37;100.0
64025;BME280;50266;57.446;26.936;2023-12-20T02:34:03;96844.8;;;1.35;100.0
64025;BME280;50266;57.446;26.936;2023-12-20T02:35:03;96838.71;;;1.35;100.0
64025;BME280;50266;57.446;26.936;2023-12-20T02:36:03;96837.36;;;1.31;100.0
64025;BME280;50266;57.446;26.936;2023-12-20T02:37:03;96852.9;;;1.29;100.0
64025;BME280;50266;57.446;26.936;2023-12-20T02:38:03;96848.34;;;1.36;100.0
64025;BME280;50266;57.446;26.936;2023-12-20T02:39:03;96842.56;;;1.4;100.0
64025;BME280;50266;57.446;26.936;2023-12-20T02:40:03;96839.75;;;1.36;100.0
64025;BME280;50266;57.446;26.936;2023-12-20T02:41:03;96840.34;;;1.3;100.0
64025;BME280;50266;57.446;26.936;2023-12-20T02:42:03;96840.77;;;1.28;100.0
64025;BME280;50266;57.446;26.936;2023-12-20T02:43:03;96844.8;;;1.29;100.0
64025;BME280;50266;57.446;26.936;2023-12-20T02:44:03;96845.02;;;1.35;100.0
64025;BME280;50266;57.446;26.936;2023-12-20T02:45:03;96841.69;;;1.33;100.0
64025;BME280;50266;57.446;26.936;2023-12-20T02:46:03;96845.47;;;1.32;100.0
64025;BME280;50266;57.446;26.936;2023-12-20T02:47:03;96841.11;;;1.26;100.0
64025;BME280;50266;57.446;26.936;2023-12-20T02:48:03;96850.76;;;1.31;100.0
64025;BME280;50266;57.446;26.936;2023-12-20T02:49:03;96848.61;;;1.28;100.0
64025;BME280;50266;57.446;26.936;2023-12-20T02:50:03;96848.86;;;1.26;100.0
64025;BME280;50266;57.446;26.936;2023-12-20T02:51:03;96846.48;;;1.28;100.0
64025;BME280;50266;57.446;26.936;2023-12-20T02:52:03;96849.52;;;1.26;100.0
64025;BME280;50266;57.446;26.936;2023-12-20T02:53:03;96851.7;;;1.3;100.0
64025;BME280;50266;57.446;26.936;2023-12-20T02:54:03;96844.3;;;1.23;100.0
64025;BME280;50266;57.446;26.936;2023-12-20T02:55:03;96846.25;;;1.21;100.0
64025;BME280;50266;57.446;26.936;2023-12-20T02:56:03;96858.12;;;1.24;100.0
64025;BME280;50266;57.446;26.936;2023-12-20T02:57:03;96855.22;;;1.25;100.0
64025;BME280;50266;57.446;26.936;2023-12-20T02:58:03;96855.59;;;1.27;100.0
64025;BME280;50266;57.446;26.936;2023-12-20T02:59:03;96867.29;;;1.19;100.0
64025;BME280;50266;57.446;26.936;2023-12-20T03:00:04;96866.58;;;1.25;100.0
64025;BME280;50266;57.446;26.936;2023-12-20T03:01:03;96868.52;;;1.24;100.0
64025;BME280;50266;57.446;26.936;2023-12-20T03:02:03;96863.97;;;1.23;100.0
64025;BME280;50266;57.446;26.936;2023-12-20T03:03:04;96867.91;;;1.23;100.0
64025;BME280;50266;57.446;26.936;2023-12-20T03:04:03;96878.97;;;1.27;100.0
64025;BME280;50266;57.446;26.936;2023-12-20T03:05:03;96866.34;;;1.26;100.0
64025;BME280;50266;57.446;26.936;2023-12-20T03:06:03;96868.62;;;1.25;100.0
64025;BME280;50266;57.446;26.936;2023-12-20T03:07:03;96878.0;;;1.25;100.0
64025;BME280;50266;57.446;26.936;2023-12-20T03:08:04;96875.72;;;1.22;100.0
64025;BME280;50266;57.446;26.936;2023-12-20T03:09:04;96879.11;;;1.19;100.0
64025;BME280;50266;57.446;26.936;2023-12-20T03:10:04;96878.77;;;1.18;100.0
64025;BME280;50266;57.446;26.936;2023-12-20T03:11:05;96884.1;;;1.14;100.0
64025;BME280;50266;57.446;26.936;2023-12-20T03:12:05;96891.3;;;1.14;100.0
64025;BME280;50266;57.446;26.936;2023-12-20T03:13:05;96896.75;;;1.25;100.0
64025;BME280;50266;57.446;26.936;2023-12-20T03:14:05;96897.69;;;1.24;100.0
64025;BME280;50266;57.446;26.936;2023-12-20T03:15:06;96891.03;;;1.26;100.0
64025;BME280;50266;57.446;26.936;2023-12-20T03:16:12;96891.38;;;1.26;100.0
64025;BME280;50266;57.446;26.936;2023-12-20T03:17:09;96890.2;;;1.27;100.0
64025;BME280;50266;57.446;26.936;2023-12-20T03:18:09;96899.61;;;1.28;100.0
64025;BME280;50266;57.446;26.936;2023-12-20T03:19:09;96895.58;;;1.27;100.0
64025;BME280;50266;57.446;26.936;2023-12-20T03:20:09;96906.05;;;1.25;100.0
64025;BME280;50266;57.446;26.936;2023-12-20T03:21:09;96893.88;;;1.24;100.0
64025;BME280;50266;57.446;26.936;2023-12-20T03:22:09;96901.25;;;1.28;100.0
64025;BME280;50266;57.446;26.936;2023-12-20T03:23:09;96892.59;;;1.26;100.0
64025;BME280;50266;57.446;26.936;2023-12-20T03:24:09;96891.91;;;1.24;100.0
64025;BME280;50266;57.446;26.936;2023-12-20T03:25:09;96894.23;;;1.18;100.0
64025;BME280;50266;57.446;26.936;2023-12-20T03:26:09;96897.58;;;1.23;100.0
64025;BME280;50266;57.446;26.936;2023-12-20T03:27:09;96899.16;;;1.24;100.0
64025;BME280;50266;57.446;26.936;2023-12-20T03:28:09;96886.88;;;1.23;100.0
64025;BME280;50266;57.446;26.936;2023-12-20T03:29:09;96898.09;;;1.17;100.0
64025;BME280;50266;57.446;26.936;2023-12-20T03:30:09;96894.39;;;1.18;100.0
64025;BME280;50266;57.446;26.936;2023-12-20T03:31:09;96892.38;;;1.17;100.0
64025;BME280;50266;57.446;26.936;2023-12-20T03:32:09;96892.08;;;1.16;100.0
64025;BME280;50266;57.446;26.936;2023-12-20T03:33:09;96903.94;;;1.16;100.0
64025;BME280;50266;57.446;26.936;2023-12-20T03:34:09;96906.09;;;1.12;100.0
64025;BME280;50266;57.446;26.936;2023-12-20T03:35:09;96895.77;;;1.14;100.0
64025;BME280;50266;57.446;26.936;2023-12-20T03:36:09;96905.38;;;1.21;100.0
64025;BME280;50266;57.446;26.936;2023-12-20T03:37:09;96887.87;;;1.17;100.0
64025;BME280;50266;57.446;26.936;2023-12-20T03:38:09;96899.27;;;1.16;100.0
64025;BME280;50266;57.446;26.936;2023-12-20T03:39:09;96893.6;;;1.21;100.0
64025;BME280;50266;57.446;26.936;2023-12-20T03:40:09;96887.14;;;1.19;100.0
64025;BME280;50266;57.446;26.936;2023-12-20T03:41:09;96898.27;;;1.17;100.0
64025;BME280;50266;57.446;26.936;2023-12-20T03:42:09;96890.33;;;1.19;100.0
64025;BME280;50266;57.446;26.936;2023-12-20T03:43:09;96890.78;;;1.12;100.0
64025;BME280;50266;57.446;26.936;2023-12-20T03:44:09;96892.59;;;1.14;100.0
64025;BME280;50266;57.446;26.936;2023-12-20T03:45:09;96886.48;;;1.1;100.0
64025;BME280;50266;57.446;26.936;2023-12-20T03:46:09;96884.65;;;1.05;100.0
64025;BME280;50266;57.446;26.936;2023-12-20T03:47:09;96891.25;;;1.01;100.0
64025;BME280;50266;57.446;26.936;2023-12-20T03:48:09;96886.94;;;1.0;100.0
64025;BME280;50266;57.446;26.936;2023-12-20T03:49:09;96887.38;;;1.03;100.0
64025;BME280;50266;57.446;26.936;2023-12-20T03:50:09;96889.03;;;1.01;100.0
64025;BME280;50266;57.446;26.936;2023-12-20T03:51:09;96891.98;;;1.03;100.0
64025;BME280;50266;57.446;26.936;2023-12-20T03:52:09;96896.12;;;1.01;100.0
64025;BME280;50266;57.446;26.936;2023-12-20T03:53:09;96901.17;;;0.98;100.0
64025;BME280;50266;57.446;26.936;2023-12-20T03:54:09;96900.64;;;0.97;100.0
64025;BME280;50266;57.446;26.936;2023-12-20T03:55:09;96908.03;;;0.92;100.0
64025;BME280;50266;57.446;26.936;2023-12-20T03:56:09;96910.64;;;0.94;100.0
64025;BME280;50266;57.446;26.936;2023-12-20T03:57:09;96911.33;;;0.99;100.0
64025;BME280;50266;57.446;26.936;2023-12-20T03:58:09;96916.15;;;0.97;100.0
64025;BME280;50266;57.446;26.936;2023-12-20T03:59:09;96922.27;;;0.96;100.0
64025;BME280;50266;57.446;26.936;2023-12-20T04:00:10;96917.14;;;0.95;100.0
64025;BME280;50266;57.446;26.936;2023-12-20T04:01:10;96928.92;;;0.93;100.0
64025;BME280;50266;57.446;26.936;2023-12-20T04:02:09;96922.89;;;0.98;100.0
64025;BME280;50266;57.446;26.936;2023-12-20T04:03:09;96922.84;;;1.01;100.0
64025;BME280;50266;57.446;26.936;2023-12-20T04:04:10;96916.02;;;0.99;100.0
64025;BME280;50266;57.446;26.936;2023-12-20T04:05:09;96915.58;;;0.95;100.0
64025;BME280;50266;57.446;26.936;2023-12-20T04:06:09;96916.77;;;0.92;100.0
64025;BME280;50266;57.446;26.936;2023-12-20T04:07:09;96915.3;;;0.88;100.0
64025;BME280;50266;57.446;26.936;2023-12-20T04:08:11;96918.84;;;0.88;100.0
64025;BME280;50266;57.446;26.936;2023-12-20T04:09:10;96915.69;;;0.89;100.0
64025;BME280;50266;57.446;26.936;2023-12-20T04:10:10;96919.89;;;0.9;100.0
64025;BME280;50266;57.446;26.936;2023-12-20T04:11:10;96925.42;;;0.85;100.0
64025;BME280;50266;57.446;26.936;2023-12-20T04:12:10;96915.81;;;0.83;100.0
64025;BME280;50266;57.446;26.936;2023-12-20T04:13:10;96914.23;;;0.82;100.0
64025;BME280;50266;57.446;26.936;2023-12-20T04:14:10;96920.54;;;0.81;100.0
64025;BME280;50266;57.446;26.936;2023-12-20T04:15:10;96925.39;;;0.81;100.0
64025;BME280;50266;57.446;26.936;2023-12-20T04:16:10;96919.2;;;0.82;100.0
64025;BME280;50266;57.446;26.936;2023-12-20T04:17:10;96924.47;;;0.79;100.0
64025;BME280;50266;57.446;26.936;2023-12-20T04:18:10;96922.42;;;0.81;100.0
64025;BME280;50266;57.446;26.936;2023-12-20T04:19:10;96930.52;;;0.83;100.0
64025;BME280;50266;57.446;26.936;2023-12-20T04:20:10;96933.02;;;0.85;100.0
64025;BME280;50266;57.446;26.936;2023-12-20T04:21:10;96928.59;;;0.82;100.0
64025;BME280;50266;57.446;26.936;2023-12-20T04:22:10;96936.55;;;0.81;100.0
64025;BME280;50266;57.446;26.936;2023-12-20T04:23:10;96937.39;;;0.77;100.0
64025;BME280;50266;57.446;26.936;2023-12-20T04:24:10;96933.55;;;0.79;100.0
64025;BME280;50266;57.446;26.936;2023-12-20T04:25:10;96926.64;;;0.8;100.0
64025;BME280;50266;57.446;26.936;2023-12-20T04:26:10;96936.09;;;0.77;100.0
64025;BME280;50266;57.446;26.936;2023-12-20T04:27:10;96947.55;;;0.8;100.0
64025;BME280;50266;57.446;26.936;2023-12-20T04:28:10;96936.23;;;0.83;100.0
64025;BME280;50266;57.446;26.936;2023-12-20T04:29:10;96938.77;;;0.81;100.0
64025;BME280;50266;57.446;26.936;2023-12-20T04:30:10;96942.26;;;0.85;100.0
64025;BME280;50266;57.446;26.936;2023-12-20T04:31:10;96935.43;;;0.81;100.0
64025;BME280;50266;57.446;26.936;2023-12-20T04:32:10;96936.81;;;0.81;100.0
64025;BME280;50266;57.446;26.936;2023-12-20T04:33:10;96940.33;;;0.84;100.0
64025;BME280;50266;57.446;26.936;2023-12-20T04:34:10;96946.38;;;0.84;100.0
64025;BME280;50266;57.446;26.936;2023-12-20T04:35:10;96947.1;;;0.84;100.0
64025;BME280;50266;57.446;26.936;2023-12-20T04:36:10;96956.47;;;0.85;100.0
64025;BME280;50266;57.446;26.936;2023-12-20T04:37:10;96959.59;;;0.86;100.0
64025;BME280;50266;57.446;26.936;2023-12-20T04:38:10;96966.95;;;0.88;100.0
64025;BME280;50266;57.446;26.936;2023-12-20T04:39:11;96969.73;;;0.9;100.0
64025;BME280;50266;57.446;26.936;2023-12-20T04:40:10;96968.0;;;0.85;100.0
64025;BME280;50266;57.446;26.936;2023-12-20T04:41:10;96974.62;;;0.88;100.0
64025;BME280;50266;57.446;26.936;2023-12-20T04:42:10;96976.34;;;0.85;100.0
64025;BME280;50266;57.446;26.936;2023-12-20T04:43:10;96968.98;;;0.83;100.0
64025;BME280;50266;57.446;26.936;2023-12-20T04:44:10;96975.55;;;0.81;100.0
64025;BME280;50266;57.446;26.936;2023-12-20T04:45:10;96981.06;;;0.85;100.0
64025;BME280;50266;57.446;26.936;2023-12-20T04:46:10;96990.0;;;0.92;100.0
64025;BME280;50266;57.446;26.936;2023-12-20T04:47:10;96986.48;;;0.96;100.0
64025;BME280;50266;57.446;26.936;2023-12-20T04:48:10;96977.05;;;0.95;100.0
64025;BME280;50266;57.446;26.936;2023-12-20T04:49:10;96986.02;;;0.92;100.0
64025;BME280;50266;57.446;26.936;2023-12-20T04:50:10;96990.5;;;0.94;100.0
64025;BME280;50266;57.446;26.936;2023-12-20T04:51:10;96982.45;;;0.93;100.0
64025;BME280;50266;57.446;26.936;2023-12-20T04:52:10;96989.31;;;0.95;100.0
64025;BME280;50266;57.446;26.936;2023-12-20T04:53:10;96992.74;;;0.95;100.0
64025;BME280;50266;57.446;26.936;2023-12-20T04:54:10;96993.48;;;0.97;100.0
64025;BME280;50266;57.446;26.936;2023-12-20T04:55:10;96997.3;;;0.95;100.0
64025;BME280;50266;57.446;26.936;2023-12-20T04:56:10;96996.0;;;0.93;100.0
64025;BME280;50266;57.446;26.936;2023-12-20T04:57:10;96997.62;;;0.88;100.0
64025;BME280;50266;57.446;26.936;2023-12-20T04:58:10;97005.9;;;0.93;100.0
64025;BME280;50266;57.446;26.936;2023-12-20T04:59:10;97011.28;;;0.99;100.0
64025;BME280;50266;57.446;26.936;2023-12-20T05:00:11;97012.25;;;1.02;100.0
64025;BME280;50266;57.446;26.936;2023-12-20T05:01:10;97008.17;;;1.01;100.0
64025;BME280;50266;57.446;26.936;2023-12-20T05:02:10;97014.79;;;1.03;100.0
64025;BME280;50266;57.446;26.936;2023-12-20T05:03:10;97009.77;;;1.02;100.0
64025;BME280;50266;57.446;26.936;2023-12-20T05:04:10;96997.4;;;1.01;100.0
64025;BME280;50266;57.446;26.936;2023-12-20T05:05:10;97006.58;;;1.02;100.0
64025;BME280;50266;57.446;26.936;2023-12-20T05:06:10;97016.66;;;0.98;100.0
64025;BME280;50266;57.446;26.936;2023-12-20T05:07:10;97018.51;;;1.02;100.0
64025;BME280;50266;57.446;26.936;2023-12-20T05:08:10;97018.03;;;1.05;100.0
64025;BME280;50266;57.446;26.936;2023-12-20T05:09:11;97023.08;;;1.06;100.0
64025;BME280;50266;57.446;26.936;2023-12-20T05:10:10;97018.0;;;1.03;100.0
64025;BME280;50266;57.446;26.936;2023-12-20T05:11:10;97018.22;;;1.06;100.0
64025;BME280;50266;57.446;26.936;2023-12-20T05:12:10;97014.22;;;1.06;100.0
64025;BME280;50266;57.446;26.936;2023-12-20T05:13:10;97017.64;;;1.09;100.0
64025;BME280;50266;57.446;26.936;2023-12-20T05:14:10;97019.92;;;1.07;100.0
64025;BME280;50266;57.446;26.936;2023-12-20T05:15:10;97018.77;;;1.07;100.0
64025;BME280;50266;57.446;26.936;2023-12-20T05:16:10;97015.98;;;1.05;100.0
64025;BME280;50266;57.446;26.936;2023-12-20T05:17:11;97015.81;;;1.07;100.0
64025;BME280;50266;57.446;26.936;2023-12-20T05:18:10;97016.36;;;1.04;100.0
64025;BME280;50266;57.446;26.936;2023-12-20T05:19:10;97007.7;;;1.04;100.0